sensor_id;sensor_type;location;lat;lon;timestamp;pressure;altitude;pressure_sealevel;temperature;humidity
26657;BME280;14279;50.010;8.260;2022-10-16T00:01:17;100164.63;;;16.34;94.81
26657;BME280;14279;50.010;8.260;2022-10-16T00:03:43;100166.31;;;16.35;94.43
26657;BME280;14279;50.010;8.260;2022-10-16T00:06:10;100152.28;;;16.23;95.15
26657;BME280;14279;50.010;8.260;2022-10-16T00:08:36;100156.13;;;16.31;94.75
26657;BME280;14279;50.010;8.260;2022-10-16T00:11:05;100170.41;;;16.27;95.46
26657;BME280;14279;50.010;8.260;2022-10-16T00:13:32;100170.19;;;16.30;94.97
26657;BME280;14279;50.010;8.260;2022-10-16T00:15:58;100178.81;;;16.32;95.26
26657;BME280;14279;50.010;8.260;2022-10-16T00:18:25;100182.16;;;16.34;95.04
26657;BME280;14279;50.010;8.260;2022-10-16T00:20:51;100166.75;;;16.29;95.01
26657;BME280;14279;50.010;8.260;2022-10-16T00:23:16;100182.50;;;16.29;95.26
26657;BME280;14279;50.010;8.260;2022-10-16T00:25:41;100176.56;;;16.14;95.94
26657;BME280;14279;50.010;8.260;2022-10-16T00:28:07;100168.03;;;16.23;95.55
26657;BME280;14279;50.010;8.260;2022-10-16T00:30:32;100167.78;;;16.27;95.68
26657;BME280;14279;50.010;8.260;2022-10-16T00:32:57;100175.28;;;16.20;95.77
26657;BME280;14279;50.010;8.260;2022-10-16T00:35:23;100167.91;;;16.25;95.67
26657;BME280;14279;50.010;8.260;2022-10-16T00:37:48;100167.38;;;16.08;96.43
26657;BME280;14279;50.010;8.260;2022-10-16T00:40:13;100160.25;;;16.22;96.25
26657;BME280;14279;50.010;8.260;2022-10-16T00:42:39;100156.16;;;16.18;96.92
26657;BME280;14279;50.010;8.260;2022-10-16T00:45:05;100156.91;;;16.20;96.64
26657;BME280;14279;50.010;8.260;2022-10-16T00:47:33;100164.19;;;16.16;96.73
26657;BME280;14279;50.010;8.260;2022-10-16T00:50:06;100170.59;;;15.88;98.04
26657;BME280;14279;50.010;8.260;2022-10-16T00:52:33;100176.06;;;16.09;97.14
26657;BME280;14279;50.010;8.260;2022-10-16T00:54:59;100171.19;;;16.16;96.72
26657;BME280;14279;50.010;8.260;2022-10-16T00:57:25;100190.44;;;16.16;96.67
26657;BME280;14279;50.010;8.260;2022-10-16T00:59:51;100196.72;;;16.14;96.77
26657;BME280;14279;50.010;8.260;2022-10-16T01:02:17;100215.75;;;16.17;96.64
26657;BME280;14279;50.010;8.260;2022-10-16T01:04:48;100210.59;;;16.16;96.16
26657;BME280;14279;50.010;8.260;2022-10-16T01:07:24;100206.59;;;16.23;95.84
26657;BME280;14279;50.010;8.260;2022-10-16T01:10:14;100202.88;;;16.26;95.61
26657;BME280;14279;50.010;8.260;2022-10-16T01:12:54;100204.69;;;16.25;95.77
26657;BME280;14279;50.010;8.260;2022-10-16T01:20:35;100199.59;;;16.11;97.35
26657;BME280;14279;50.010;8.260;2022-10-16T01:23:27;100185.53;;;16.12;97.37
26657;BME280;14279;50.010;8.260;2022-10-16T01:26:42;100184.28;;;16.04;98.36
26657;BME280;14279;50.010;8.260;2022-10-16T01:29:26;100187.63;;;16.06;98.47
26657;BME280;14279;50.010;8.260;2022-10-16T01:31:59;100190.66;;;16.13;97.85
26657;BME280;14279;50.010;8.260;2022-10-16T01:34:32;100186.56;;;16.09;98.32
26657;BME280;14279;50.010;8.260;2022-10-16T01:37:05;100196.84;;;16.12;98.33
26657;BME280;14279;50.010;8.260;2022-10-16T01:39:35;100197.03;;;15.98;99.10
26657;BME280;14279;50.010;8.260;2022-10-16T01:42:12;100204.00;;;16.10;98.73
26657;BME280;14279;50.010;8.260;2022-10-16T01:44:40;100214.28;;;16.13;98.13
26657;BME280;14279;50.010;8.260;2022-10-16T01:47:09;100211.16;;;16.08;98.12
26657;BME280;14279;50.010;8.260;2022-10-16T01:49:37;100222.69;;;16.18;97.57
26657;BME280;14279;50.010;8.260;2022-10-16T01:52:07;100231.84;;;16.13;97.47
26657;BME280;14279;50.010;8.260;2022-10-16T01:54:35;100214.16;;;16.15;97.15
26657;BME280;14279;50.010;8.260;2022-10-16T01:57:04;100220.28;;;16.15;97.70
26657;BME280;14279;50.010;8.260;2022-10-16T01:59:33;100224.06;;;16.11;97.99
26657;BME280;14279;50.010;8.260;2022-10-16T02:02:06;100220.88;;;16.19;97.74
26657;BME280;14279;50.010;8.260;2022-10-16T02:05:10;100215.91;;;16.27;97.12
26657;BME280;14279;50.010;8.260;2022-10-16T02:07:37;100211.84;;;16.23;97.86
26657;BME280;14279;50.010;8.260;2022-10-16T02:10:03;100218.53;;;16.27;97.74
26657;BME280;14279;50.010;8.260;2022-10-16T02:12:31;100221.50;;;16.22;98.34
26657;BME280;14279;50.010;8.260;2022-10-16T02:14:58;100218.16;;;16.20;98.33
26657;BME280;14279;50.010;8.260;2022-10-16T02:17:23;100222.25;;;16.25;98.22
26657;BME280;14279;50.010;8.260;2022-10-16T02:19:51;100225.69;;;16.25;97.79
26657;BME280;14279;50.010;8.260;2022-10-16T02:22:26;100228.44;;;16.23;98.03
26657;BME280;14279;50.010;8.260;2022-10-16T02:24:58;100221.50;;;16.22;98.42
26657;BME280;14279;50.010;8.260;2022-10-16T02:27:38;100235.47;;;16.23;98.56
26657;BME280;14279;50.010;8.260;2022-10-16T02:30:22;100226.97;;;16.19;98.66
26657;BME280;14279;50.010;8.260;2022-10-16T02:32:50;100231.00;;;16.12;99.30
26657;BME280;14279;50.010;8.260;2022-10-16T02:35:18;100227.25;;;16.03;100.00
26657;BME280;14279;50.010;8.260;2022-10-16T02:37:45;100238.91;;;15.99;100.00
26657;BME280;14279;50.010;8.260;2022-10-16T02:40:11;100246.03;;;15.97;100.00
26657;BME280;14279;50.010;8.260;2022-10-16T02:42:38;100253.41;;;15.92;100.00
26657;BME280;14279;50.010;8.260;2022-10-16T02:45:06;100256.66;;;15.83;100.00
26657;BME280;14279;50.010;8.260;2022-10-16T02:47:32;100252.97;;;15.85;100.00
26657;BME280;14279;50.010;8.260;2022-10-16T02:49:57;100246.91;;;15.85;100.00
26657;BME280;14279;50.010;8.260;2022-10-16T02:52:22;100232.84;;;15.86;100.00
26657;BME280;14279;50.010;8.260;2022-10-16T02:54:48;100234.72;;;15.84;100.00
26657;BME280;14279;50.010;8.260;2022-10-16T02:57:13;100233.25;;;15.80;100.00
26657;BME280;14279;50.010;8.260;2022-10-16T02:59:38;100235.75;;;15.81;100.00
26657;BME280;14279;50.010;8.260;2022-10-16T03:02:04;100249.53;;;15.72;100.00
26657;BME280;14279;50.010;8.260;2022-10-16T03:04:29;100243.00;;;15.77;100.00
26657;BME280;14279;50.010;8.260;2022-10-16T03:06:54;100242.88;;;15.79;100.00
26657;BME280;14279;50.010;8.260;2022-10-16T03:09:20;100243.41;;;15.84;100.00
26657;BME280;14279;50.010;8.260;2022-10-16T03:11:45;100243.34;;;15.86;100.00
26657;BME280;14279;50.010;8.260;2022-10-16T03:14:10;100245.84;;;15.87;100.00
26657;BME280;14279;50.010;8.260;2022-10-16T03:16:35;100252.66;;;15.90;100.00
26657;BME280;14279;50.010;8.260;2022-10-16T03:19:02;100250.28;;;15.87;100.00
26657;BME280;14279;50.010;8.260;2022-10-16T03:21:27;100249.84;;;15.93;100.00
26657;BME280;14279;50.010;8.260;2022-10-16T03:23:52;100249.63;;;15.96;100.00
26657;BME280;14279;50.010;8.260;2022-10-16T03:26:18;100251.09;;;16.00;100.00
26657;BME280;14279;50.010;8.260;2022-10-16T03:28:43;100260.75;;;16.00;100.00
26657;BME280;14279;50.010;8.260;2022-10-16T03:31:08;100264.94;;;16.02;100.00
26657;BME280;14279;50.010;8.260;2022-10-16T03:33:33;100256.00;;;16.05;100.00
26657;BME280;14279;50.010;8.260;2022-10-16T03:35:59;100261.38;;;16.03;100.00
26657;BME280;14279;50.010;8.260;2022-10-16T03:38:25;100263.66;;;16.08;100.00
26657;BME280;14279;50.010;8.260;2022-10-16T03:40:50;100266.06;;;16.11;100.00
26657;BME280;14279;50.010;8.260;2022-10-16T03:43:15;100260.81;;;16.11;100.00
26657;BME280;14279;50.010;8.260;2022-10-16T03:45:41;100267.63;;;16.14;100.00
26657;BME280;14279;50.010;8.260;2022-10-16T03:48:06;100262.28;;;16.15;100.00
26657;BME280;14279;50.010;8.260;2022-10-16T03:50:31;100264.78;;;16.17;100.00
26657;BME280;14279;50.010;8.260;2022-10-16T03:52:57;100260.41;;;16.17;100.00
26657;BME280;14279;50.010;8.260;2022-10-16T03:55:22;100251.56;;;16.18;100.00
26657;BME280;14279;50.010;8.260;2022-10-16T03:57:47;100252.50;;;16.17;100.00
26657;BME280;14279;50.010;8.260;2022-10-16T04:00:13;100262.38;;;16.14;100.00
26657;BME280;14279;50.010;8.260;2022-10-16T04:02:39;100271.72;;;16.18;100.00
26657;BME280;14279;50.010;8.260;2022-10-16T04:05:04;100259.44;;;16.18;100.00
26657;BME280;14279;50.010;8.260;2022-10-16T04:07:30;100251.34;;;16.21;100.00
26657;BME280;14279;50.010;8.260;2022-10-16T04:09:55;100255.88;;;16.19;100.00
26657;BME280;14279;50.010;8.260;2022-10-16T04:12:22;100255.91;;;16.06;100.00
26657;BME280;14279;50.010;8.260;2022-10-16T04:14:47;100266.41;;;16.06;100.00
26657;BME280;14279;50.010;8.260;2022-10-16T04:17:12;100265.06;;;16.01;100.00
26657;BME280;14279;50.010;8.260;2022-10-16T04:19:37;100265.97;;;16.13;100.00
26657;BME280;14279;50.010;8.260;2022-10-16T04:22:03;100266.47;;;16.18;100.00
26657;BME280;14279;50.010;8.260;2022-10-16T04:24:28;100268.88;;;16.21;100.00
26657;BME280;14279;50.010;8.260;2022-10-16T04:26:53;100269.22;;;16.16;100.00
26657;BME280;14279;50.010;8.260;2022-10-16T04:29:19;100273.00;;;16.12;100.00
26657;BME280;14279;50.010;8.260;2022-10-16T04:31:44;100271.75;;;16.05;100.00
26657;BME280;14279;50.010;8.260;2022-10-16T04:34:09;100273.88;;;16.00;99.90
26657;BME280;14279;50.010;8.260;2022-10-16T04:36:34;100279.34;;;15.97;99.84
26657;BME280;14279;50.010;8.260;2022-10-16T04:39:00;100283.09;;;16.05;99.22
26657;BME280;14279;50.010;8.260;2022-10-16T04:41:25;100275.09;;;16.07;98.95
26657;BME280;14279;50.010;8.260;2022-10-16T04:43:50;100283.31;;;16.02;98.60
26657;BME280;14279;50.010;8.260;2022-10-16T04:46:15;100288.16;;;15.96;98.53
26657;BME280;14279;50.010;8.260;2022-10-16T04:48:41;100286.50;;;15.95;97.87
26657;BME280;14279;50.010;8.260;2022-10-16T04:51:06;100298.22;;;16.02;97.93
26657;BME280;14279;50.010;8.260;2022-10-16T04:53:31;100305.59;;;15.97;98.61
26657;BME280;14279;50.010;8.260;2022-10-16T04:55:57;100302.66;;;16.01;98.19
26657;BME280;14279;50.010;8.260;2022-10-16T04:58:22;100297.91;;;16.06;97.72
26657;BME280;14279;50.010;8.260;2022-10-16T05:00:48;100302.41;;;16.17;96.41
26657;BME280;14279;50.010;8.260;2022-10-16T05:03:13;100294.19;;;16.22;95.83
26657;BME280;14279;50.010;8.260;2022-10-16T05:05:43;100294.09;;;16.23;95.63
26657;BME280;14279;50.010;8.260;2022-10-16T05:08:09;100288.91;;;16.35;95.35
26657;BME280;14279;50.010;8.260;2022-10-16T05:10:35;100286.44;;;16.20;96.12
26657;BME280;14279;50.010;8.260;2022-10-16T05:13:00;100281.66;;;16.26;95.93
26657;BME280;14279;50.010;8.260;2022-10-16T05:15:25;100282.41;;;16.28;95.54
26657;BME280;14279;50.010;8.260;2022-10-16T05:17:54;100286.53;;;16.19;95.89
26657;BME280;14279;50.010;8.260;2022-10-16T05:20:20;100290.97;;;16.18;96.03
26657;BME280;14279;50.010;8.260;2022-10-16T05:22:45;100287.25;;;16.21;96.41
26657;BME280;14279;50.010;8.260;2022-10-16T05:25:10;100286.84;;;16.27;95.64
26657;BME280;14279;50.010;8.260;2022-10-16T05:27:36;100284.94;;;16.29;95.81
26657;BME280;14279;50.010;8.260;2022-10-16T05:30:01;100277.06;;;16.29;95.32
26657;BME280;14279;50.010;8.260;2022-10-16T05:32:27;100287.34;;;16.32;95.26
26657;BME280;14279;50.010;8.260;2022-10-16T05:34:52;100294.06;;;16.36;95.05
26657;BME280;14279;50.010;8.260;2022-10-16T05:37:18;100301.22;;;16.34;95.06
26657;BME280;14279;50.010;8.260;2022-10-16T05:39:43;100297.41;;;16.38;95.37
26657;BME280;14279;50.010;8.260;2022-10-16T05:42:08;100311.78;;;16.46;94.74
26657;BME280;14279;50.010;8.260;2022-10-16T05:44:33;100321.69;;;16.42;93.60
26657;BME280;14279;50.010;8.260;2022-10-16T05:46:59;100321.34;;;16.47;93.32
26657;BME280;14279;50.010;8.260;2022-10-16T05:49:24;100325.53;;;16.49;93.26
26657;BME280;14279;50.010;8.260;2022-10-16T05:51:49;100326.91;;;16.55;93.57
26657;BME280;14279;50.010;8.260;2022-10-16T05:54:15;100326.59;;;16.47;94.37
26657;BME280;14279;50.010;8.260;2022-10-16T05:56:40;100330.69;;;16.51;94.15
26657;BME280;14279;50.010;8.260;2022-10-16T05:59:06;100334.13;;;16.51;94.57
26657;BME280;14279;50.010;8.260;2022-10-16T06:01:31;100329.00;;;16.50;94.71
26657;BME280;14279;50.010;8.260;2022-10-16T06:03:57;100332.75;;;16.59;94.77
26657;BME280;14279;50.010;8.260;2022-10-16T06:06:25;100342.94;;;16.63;94.05
26657;BME280;14279;50.010;8.260;2022-10-16T06:08:52;100342.09;;;16.63;94.63
26657;BME280;14279;50.010;8.260;2022-10-16T06:11:20;100345.69;;;16.62;94.54
26657;BME280;14279;50.010;8.260;2022-10-16T06:13:58;100344.00;;;16.61;94.63
26657;BME280;14279;50.010;8.260;2022-10-16T06:16:25;100341.97;;;16.64;94.38
26657;BME280;14279;50.010;8.260;2022-10-16T06:18:52;100351.44;;;16.67;94.46
26657;BME280;14279;50.010;8.260;2022-10-16T06:21:20;100342.28;;;16.73;93.42
26657;BME280;14279;50.010;8.260;2022-10-16T06:23:47;100335.22;;;16.73;93.63
26657;BME280;14279;50.010;8.260;2022-10-16T06:26:14;100338.19;;;16.68;94.01
26657;BME280;14279;50.010;8.260;2022-10-16T06:28:40;100333.78;;;16.69;94.32
26657;BME280;14279;50.010;8.260;2022-10-16T06:31:07;100341.19;;;16.75;94.64
26657;BME280;14279;50.010;8.260;2022-10-16T06:33:32;100338.31;;;16.67;94.91
26657;BME280;14279;50.010;8.260;2022-10-16T06:36:12;100354.50;;;16.61;95.66
26657;BME280;14279;50.010;8.260;2022-10-16T06:38:38;100349.47;;;16.58;96.82
26657;BME280;14279;50.010;8.260;2022-10-16T06:41:04;100356.97;;;16.51;97.03
26657;BME280;14279;50.010;8.260;2022-10-16T06:43:31;100363.91;;;16.52;97.33
26657;BME280;14279;50.010;8.260;2022-10-16T06:45:58;100370.19;;;16.49;97.72
26657;BME280;14279;50.010;8.260;2022-10-16T06:48:24;100364.84;;;16.51;97.52
26657;BME280;14279;50.010;8.260;2022-10-16T06:50:57;100368.06;;;16.55;97.11
26657;BME280;14279;50.010;8.260;2022-10-16T06:53:23;100371.44;;;16.57;97.60
26657;BME280;14279;50.010;8.260;2022-10-16T06:55:48;100364.06;;;16.62;97.14
26657;BME280;14279;50.010;8.260;2022-10-16T06:58:14;100375.09;;;16.67;96.88
26657;BME280;14279;50.010;8.260;2022-10-16T07:00:39;100380.44;;;16.65;96.90
26657;BME280;14279;50.010;8.260;2022-10-16T07:03:04;100377.72;;;16.67;96.91
26657;BME280;14279;50.010;8.260;2022-10-16T07:05:29;100371.63;;;16.66;96.90
26657;BME280;14279;50.010;8.260;2022-10-16T07:07:55;100377.72;;;16.67;96.86
26657;BME280;14279;50.010;8.260;2022-10-16T07:10:20;100365.09;;;16.72;96.55
26657;BME280;14279;50.010;8.260;2022-10-16T07:12:49;100381.53;;;16.63;97.67
26657;BME280;14279;50.010;8.260;2022-10-16T07:15:14;100392.78;;;16.65;97.49
26657;BME280;14279;50.010;8.260;2022-10-16T07:17:39;100405.72;;;16.55;98.04
26657;BME280;14279;50.010;8.260;2022-10-16T07:20:05;100417.06;;;16.56;98.17
26657;BME280;14279;50.010;8.260;2022-10-16T07:22:30;100412.00;;;16.52;98.23
26657;BME280;14279;50.010;8.260;2022-10-16T07:24:55;100402.38;;;16.53;98.59
26657;BME280;14279;50.010;8.260;2022-10-16T07:27:21;100419.06;;;16.52;98.50
26657;BME280;14279;50.010;8.260;2022-10-16T07:29:49;100427.06;;;16.50;99.34
26657;BME280;14279;50.010;8.260;2022-10-16T07:32:14;100420.63;;;16.55;99.45
26657;BME280;14279;50.010;8.260;2022-10-16T07:34:40;100428.31;;;16.58;99.32
26657;BME280;14279;50.010;8.260;2022-10-16T07:37:05;100436.31;;;16.56;99.62
26657;BME280;14279;50.010;8.260;2022-10-16T07:39:33;100436.41;;;16.55;98.47
26657;BME280;14279;50.010;8.260;2022-10-16T07:41:59;100439.34;;;16.63;97.95
26657;BME280;14279;50.010;8.260;2022-10-16T07:44:24;100442.38;;;16.70;97.77
26657;BME280;14279;50.010;8.260;2022-10-16T07:46:49;100443.72;;;16.75;97.47
26657;BME280;14279;50.010;8.260;2022-10-16T07:49:14;100441.72;;;16.79;98.07
26657;BME280;14279;50.010;8.260;2022-10-16T07:51:40;100450.66;;;16.76;99.48
26657;BME280;14279;50.010;8.260;2022-10-16T07:54:05;100456.13;;;16.73;99.32
26657;BME280;14279;50.010;8.260;2022-10-16T07:56:31;100464.00;;;16.73;98.85
26657;BME280;14279;50.010;8.260;2022-10-16T07:58:58;100464.53;;;16.78;97.91
26657;BME280;14279;50.010;8.260;2022-10-16T08:01:24;100470.81;;;16.89;96.29
26657;BME280;14279;50.010;8.260;2022-10-16T08:03:50;100476.28;;;16.86;96.87
26657;BME280;14279;50.010;8.260;2022-10-16T08:06:17;100481.03;;;16.80;96.72
26657;BME280;14279;50.010;8.260;2022-10-16T08:08:48;100482.09;;;16.78;96.35
26657;BME280;14279;50.010;8.260;2022-10-16T08:11:14;100486.28;;;16.80;96.29
26657;BME280;14279;50.010;8.260;2022-10-16T08:13:40;100485.78;;;16.75;96.75
26657;BME280;14279;50.010;8.260;2022-10-16T08:16:09;100490.81;;;16.78;96.69
26657;BME280;14279;50.010;8.260;2022-10-16T08:18:44;100493.44;;;16.78;96.06
26657;BME280;14279;50.010;8.260;2022-10-16T08:21:17;100493.44;;;16.78;97.46
26657;BME280;14279;50.010;8.260;2022-10-16T08:23:42;100499.03;;;16.61;97.67
26657;BME280;14279;50.010;8.260;2022-10-16T08:26:09;100505.03;;;16.63;98.21
26657;BME280;14279;50.010;8.260;2022-10-16T08:28:35;100512.38;;;16.71;98.37
26657;BME280;14279;50.010;8.260;2022-10-16T08:31:09;100504.47;;;16.83;97.66
26657;BME280;14279;50.010;8.260;2022-10-16T08:33:36;100513.94;;;16.99;96.73
26657;BME280;14279;50.010;8.260;2022-10-16T08:36:03;100514.84;;;17.11;95.53
26657;BME280;14279;50.010;8.260;2022-10-16T08:38:28;100518.91;;;17.28;95.06
26657;BME280;14279;50.010;8.260;2022-10-16T08:41:03;100518.09;;;17.27;93.91
26657;BME280;14279;50.010;8.260;2022-10-16T08:49:30;100536.03;;;16.83;94.36
26657;BME280;14279;50.010;8.260;2022-10-16T08:51:56;100538.13;;;16.78;95.15
26657;BME280;14279;50.010;8.260;2022-10-16T08:54:35;100537.50;;;16.88;94.84
26657;BME280;14279;50.010;8.260;2022-10-16T08:57:34;100553.81;;;16.93;94.32
26657;BME280;14279;50.010;8.260;2022-10-16T09:00:08;100551.91;;;16.95;95.25
26657;BME280;14279;50.010;8.260;2022-10-16T09:02:39;100553.06;;;16.91;95.33
26657;BME280;14279;50.010;8.260;2022-10-16T09:05:28;100547.19;;;17.00;95.13
26657;BME280;14279;50.010;8.260;2022-10-16T09:20:53;100579.97;;;16.56;98.74
26657;BME280;14279;50.010;8.260;2022-10-16T09:23:29;100569.81;;;16.64;98.05
26657;BME280;14279;50.010;8.260;2022-10-16T09:25:55;100578.63;;;16.63;99.87
26657;BME280;14279;50.010;8.260;2022-10-16T09:28:23;100569.38;;;16.57;100.00
26657;BME280;14279;50.010;8.260;2022-10-16T09:30:48;100580.84;;;16.56;100.00
26657;BME280;14279;50.010;8.260;2022-10-16T09:33:15;100587.25;;;16.52;100.00
26657;BME280;14279;50.010;8.260;2022-10-16T09:35:43;100588.28;;;16.36;100.00
26657;BME280;14279;50.010;8.260;2022-10-16T09:38:21;100596.59;;;16.43;100.00
26657;BME280;14279;50.010;8.260;2022-10-16T09:40:47;100600.16;;;16.42;100.00
26657;BME280;14279;50.010;8.260;2022-10-16T09:43:33;100601.66;;;16.46;100.00
26657;BME280;14279;50.010;8.260;2022-10-16T09:46:02;100594.50;;;16.61;100.00
26657;BME280;14279;50.010;8.260;2022-10-16T09:48:52;100594.28;;;16.90;100.00
26657;BME280;14279;50.010;8.260;2022-10-16T09:53:49;100602.94;;;17.05;100.00
26657;BME280;14279;50.010;8.260;2022-10-16T09:56:25;100592.94;;;17.10;100.00
26657;BME280;14279;50.010;8.260;2022-10-16T09:58:56;100598.50;;;17.19;100.00
26657;BME280;14279;50.010;8.260;2022-10-16T10:01:28;100605.53;;;17.31;99.89
26657;BME280;14279;50.010;8.260;2022-10-16T10:03:56;100596.44;;;17.48;98.06
26657;BME280;14279;50.010;8.260;2022-10-16T10:06:28;100599.44;;;17.55;97.81
26657;BME280;14279;50.010;8.260;2022-10-16T10:09:05;100597.81;;;17.78;96.20
26657;BME280;14279;50.010;8.260;2022-10-16T10:11:53;100601.81;;;17.95;95.99
26657;BME280;14279;50.010;8.260;2022-10-16T10:22:40;100594.56;;;17.99;93.86
26657;BME280;14279;50.010;8.260;2022-10-16T10:30:22;100602.28;;;18.13;91.66
26657;BME280;14279;50.010;8.260;2022-10-16T10:33:16;100598.97;;;18.23;91.92
26657;BME280;14279;50.010;8.260;2022-10-16T10:36:12;100605.22;;;18.33;91.50
26657;BME280;14279;50.010;8.260;2022-10-16T10:38:44;100599.63;;;18.38;91.37
26657;BME280;14279;50.010;8.260;2022-10-16T10:46:32;100599.00;;;18.34;92.65
26657;BME280;14279;50.010;8.260;2022-10-16T10:54:42;100608.94;;;18.77;89.41
26657;BME280;14279;50.010;8.260;2022-10-16T11:08:19;100595.25;;;18.84;86.36
26657;BME280;14279;50.010;8.260;2022-10-16T11:10:57;100597.97;;;18.71;86.93
26657;BME280;14279;50.010;8.260;2022-10-16T11:13:37;100599.84;;;18.46;89.65
26657;BME280;14279;50.010;8.260;2022-10-16T11:16:27;100597.50;;;18.54;89.14
26657;BME280;14279;50.010;8.260;2022-10-16T11:19:03;100596.16;;;18.48;89.42
26657;BME280;14279;50.010;8.260;2022-10-16T11:21:43;100600.50;;;18.61;89.05
26657;BME280;14279;50.010;8.260;2022-10-16T11:24:19;100596.53;;;18.55;89.14
26657;BME280;14279;50.010;8.260;2022-10-16T11:26:46;100597.88;;;18.84;88.28
26657;BME280;14279;50.010;8.260;2022-10-16T11:29:20;100602.38;;;19.06;87.03
26657;BME280;14279;50.010;8.260;2022-10-16T11:31:53;100603.06;;;18.85;87.97
26657;BME280;14279;50.010;8.260;2022-10-16T11:37:11;100593.22;;;18.87;88.36
26657;BME280;14279;50.010;8.260;2022-10-16T11:39:38;100585.78;;;19.27;86.60
26657;BME280;14279;50.010;8.260;2022-10-16T11:42:44;100581.56;;;19.47;86.37
26657;BME280;14279;50.010;8.260;2022-10-16T11:48:04;100574.97;;;19.41;85.73
26657;BME280;14279;50.010;8.260;2022-10-16T11:51:05;100581.53;;;19.58;85.94
26657;BME280;14279;50.010;8.260;2022-10-16T11:53:45;100584.06;;;19.60;85.20
26657;BME280;14279;50.010;8.260;2022-10-16T11:56:20;100580.63;;;19.80;84.59
26657;BME280;14279;50.010;8.260;2022-10-16T11:59:02;100587.59;;;19.81;84.17
26657;BME280;14279;50.010;8.260;2022-10-16T12:01:43;100583.59;;;19.87;85.21
26657;BME280;14279;50.010;8.260;2022-10-16T12:07:19;100578.00;;;19.80;85.16
26657;BME280;14279;50.010;8.260;2022-10-16T12:09:50;100581.47;;;20.13;84.30
26657;BME280;14279;50.010;8.260;2022-10-16T12:12:48;100583.56;;;19.98;82.58
26657;BME280;14279;50.010;8.260;2022-10-16T12:15:22;100587.91;;;19.56;83.64
26657;BME280;14279;50.010;8.260;2022-10-16T12:17:48;100592.94;;;19.59;83.93
26657;BME280;14279;50.010;8.260;2022-10-16T12:22:58;100590.97;;;20.16;81.06
26657;BME280;14279;50.010;8.260;2022-10-16T12:27:59;100604.03;;;19.96;82.30
26657;BME280;14279;50.010;8.260;2022-10-16T12:30:26;100598.75;;;20.18;81.14
26657;BME280;14279;50.010;8.260;2022-10-16T12:32:57;100594.00;;;20.33;79.67
26657;BME280;14279;50.010;8.260;2022-10-16T12:35:29;100597.84;;;20.28;80.23
26657;BME280;14279;50.010;8.260;2022-10-16T12:38:07;100602.94;;;20.41;79.86
26657;BME280;14279;50.010;8.260;2022-10-16T12:40:36;100593.66;;;20.47;79.28
26657;BME280;14279;50.010;8.260;2022-10-16T12:48:45;100601.56;;;20.05;82.05
26657;BME280;14279;50.010;8.260;2022-10-16T12:54:13;100592.50;;;20.19;81.12
26657;BME280;14279;50.010;8.260;2022-10-16T13:10:59;100602.19;;;20.51;77.54
26657;BME280;14279;50.010;8.260;2022-10-16T13:30:15;100598.69;;;20.71;77.02
26657;BME280;14279;50.010;8.260;2022-10-16T13:32:48;100596.50;;;20.77;77.31
26657;BME280;14279;50.010;8.260;2022-10-16T13:35:26;100591.94;;;20.79;77.18
26657;BME280;14279;50.010;8.260;2022-10-16T13:38:04;100596.09;;;20.81;77.18
26657;BME280;14279;50.010;8.260;2022-10-16T13:40:29;100587.75;;;20.86;77.77
26657;BME280;14279;50.010;8.260;2022-10-16T13:42:54;100583.44;;;20.85;77.54
26657;BME280;14279;50.010;8.260;2022-10-16T13:45:23;100582.63;;;20.84;77.60
26657;BME280;14279;50.010;8.260;2022-10-16T13:48:05;100585.16;;;20.96;77.42
26657;BME280;14279;50.010;8.260;2022-10-16T13:50:31;100568.91;;;21.00;77.41
26657;BME280;14279;50.010;8.260;2022-10-16T13:53:09;100567.59;;;20.95;77.55
26657;BME280;14279;50.010;8.260;2022-10-16T13:55:37;100569.69;;;20.91;77.87
26657;BME280;14279;50.010;8.260;2022-10-16T13:58:13;100559.66;;;20.95;78.13
26657;BME280;14279;50.010;8.260;2022-10-16T14:00:40;100572.34;;;20.91;77.87
26657;BME280;14279;50.010;8.260;2022-10-16T14:03:16;100584.47;;;20.94;77.97
26657;BME280;14279;50.010;8.260;2022-10-16T14:06:11;100586.28;;;20.93;78.51
26657;BME280;14279;50.010;8.260;2022-10-16T14:08:42;100589.78;;;20.94;77.85
26657;BME280;14279;50.010;8.260;2022-10-16T14:11:08;100591.97;;;20.89;78.48
26657;BME280;14279;50.010;8.260;2022-10-16T14:13:44;100593.84;;;21.08;77.63
26657;BME280;14279;50.010;8.260;2022-10-16T14:16:16;100589.47;;;20.97;78.51
26657;BME280;14279;50.010;8.260;2022-10-16T14:18:46;100589.50;;;21.07;78.26
26657;BME280;14279;50.010;8.260;2022-10-16T14:21:16;100589.22;;;21.00;77.89
26657;BME280;14279;50.010;8.260;2022-10-16T14:23:42;100583.97;;;21.10;77.57
26657;BME280;14279;50.010;8.260;2022-10-16T14:28:34;100591.38;;;21.16;76.79
26657;BME280;14279;50.010;8.260;2022-10-16T14:31:00;100581.63;;;21.16;77.28
26657;BME280;14279;50.010;8.260;2022-10-16T14:38:36;100592.22;;;21.16;77.42
26657;BME280;14279;50.010;8.260;2022-10-16T14:41:03;100587.56;;;21.09;77.39
26657;BME280;14279;50.010;8.260;2022-10-16T14:45:57;100586.97;;;20.95;77.76
26657;BME280;14279;50.010;8.260;2022-10-16T14:48:23;100589.31;;;20.89;77.96
26657;BME280;14279;50.010;8.260;2022-10-16T14:50:49;100586.09;;;20.85;78.32
26657;BME280;14279;50.010;8.260;2022-10-16T14:53:15;100590.56;;;20.84;78.91
26657;BME280;14279;50.010;8.260;2022-10-16T14:55:42;100593.91;;;20.86;78.69
26657;BME280;14279;50.010;8.260;2022-10-16T14:58:19;100590.66;;;20.83;78.79
26657;BME280;14279;50.010;8.260;2022-10-16T15:00:48;100593.59;;;20.80;79.30
26657;BME280;14279;50.010;8.260;2022-10-16T15:03:13;100599.72;;;20.80;79.75
26657;BME280;14279;50.010;8.260;2022-10-16T15:05:39;100601.41;;;20.81;79.62